sensor_id;sensor_type;location;lat;lon;timestamp;P1;durP1;ratioP1;P2;durP2;ratioP2
3068;SDS011;1545;51.728;8.796;2023-04-16T00:00:19;202.30;;;73.03;;
3068;SDS011;1545;51.728;8.796;2023-04-16T00:02:44;221.07;;;77.50;;
3068;SDS011;1545;51.728;8.796;2023-04-16T00:05:10;241.17;;;77.53;;
3068;SDS011;1545;51.728;8.796;2023-04-16T00:07:35;219.30;;;77.30;;
3068;SDS011;1545;51.728;8.796;2023-04-16T00:10:01;202.07;;;74.67;;
3068;SDS011;1545;51.728;8.796;2023-04-16T00:12:26;223.10;;;78.40;;
3068;SDS011;1545;51.728;8.796;2023-04-16T00:14:52;217.80;;;78.67;;
3068;SDS011;1545;51.728;8.796;2023-04-16T00:17:17;221.10;;;78.20;;
3068;SDS011;1545;51.728;8.796;2023-04-16T00:19:43;211.83;;;79.47;;
3068;SDS011;1545;51.728;8.796;2023-04-16T00:22:08;216.63;;;81.20;;
3068;SDS011;1545;51.728;8.796;2023-04-16T00:24:34;201.53;;;77.03;;
3068;SDS011;1545;51.728;8.796;2023-04-16T00:26:59;202.40;;;77.43;;
3068;SDS011;1545;51.728;8.796;2023-04-16T00:29:25;217.87;;;75.40;;
3068;SDS011;1545;51.728;8.796;2023-04-16T00:31:52;216.10;;;77.20;;
3068;SDS011;1545;51.728;8.796;2023-04-16T00:34:18;214.13;;;81.07;;
3068;SDS011;1545;51.728;8.796;2023-04-16T00:36:43;208.50;;;79.03;;
3068;SDS011;1545;51.728;8.796;2023-04-16T00:39:09;208.57;;;77.37;;
3068;SDS011;1545;51.728;8.796;2023-04-16T00:41:34;207.30;;;77.50;;
3068;SDS011;1545;51.728;8.796;2023-04-16T00:44:01;213.30;;;79.57;;
3068;SDS011;1545;51.728;8.796;2023-04-16T00:46:27;206.40;;;77.57;;
3068;SDS011;1545;51.728;8.796;2023-04-16T00:48:52;209.33;;;78.90;;
3068;SDS011;1545;51.728;8.796;2023-04-16T00:51:18;213.93;;;80.80;;
3068;SDS011;1545;51.728;8.796;2023-04-16T00:53:45;201.90;;;78.13;;
3068;SDS011;1545;51.728;8.796;2023-04-16T00:56:11;206.77;;;77.87;;
3068;SDS011;1545;51.728;8.796;2023-04-16T00:58:37;199.33;;;79.17;;
3068;SDS011;1545;51.728;8.796;2023-04-16T01:01:03;203.13;;;78.47;;
3068;SDS011;1545;51.728;8.796;2023-04-16T01:03:33;205.03;;;77.97;;
3068;SDS011;1545;51.728;8.796;2023-04-16T01:06:03;200.57;;;77.17;;
3068;SDS011;1545;51.728;8.796;2023-04-16T01:08:29;210.07;;;79.40;;
3068;SDS011;1545;51.728;8.796;2023-04-16T01:10:55;208.60;;;81.60;;
3068;SDS011;1545;51.728;8.796;2023-04-16T01:13:21;206.87;;;77.80;;
3068;SDS011;1545;51.728;8.796;2023-04-16T01:15:46;203.37;;;80.13;;
3068;SDS011;1545;51.728;8.796;2023-04-16T01:18:15;209.97;;;79.80;;
3068;SDS011;1545;51.728;8.796;2023-04-16T01:20:42;217.73;;;78.17;;
3068;SDS011;1545;51.728;8.796;2023-04-16T01:23:08;208.53;;;81.83;;
3068;SDS011;1545;51.728;8.796;2023-04-16T01:25:33;195.90;;;78.33;;
3068;SDS011;1545;51.728;8.796;2023-04-16T01:27:59;196.80;;;76.67;;
3068;SDS011;1545;51.728;8.796;2023-04-16T01:30:24;193.93;;;78.40;;
3068;SDS011;1545;51.728;8.796;2023-04-16T01:32:50;183.90;;;76.93;;
3068;SDS011;1545;51.728;8.796;2023-04-16T01:35:16;193.60;;;77.63;;
3068;SDS011;1545;51.728;8.796;2023-04-16T01:37:44;194.10;;;76.87;;
3068;SDS011;1545;51.728;8.796;2023-04-16T01:40:10;203.17;;;80.23;;
3068;SDS011;1545;51.728;8.796;2023-04-16T01:42:36;169.50;;;73.30;;
3068;SDS011;1545;51.728;8.796;2023-04-16T01:45:02;174.83;;;73.10;;
3068;SDS011;1545;51.728;8.796;2023-04-16T01:47:28;187.43;;;76.57;;
3068;SDS011;1545;51.728;8.796;2023-04-16T01:49:53;179.47;;;72.60;;
3068;SDS011;1545;51.728;8.796;2023-04-16T01:52:19;184.77;;;74.30;;
3068;SDS011;1545;51.728;8.796;2023-04-16T01:54:45;184.67;;;77.20;;
3068;SDS011;1545;51.728;8.796;2023-04-16T01:57:10;187.33;;;74.33;;
3068;SDS011;1545;51.728;8.796;2023-04-16T01:59:36;178.03;;;74.80;;
3068;SDS011;1545;51.728;8.796;2023-04-16T02:02:06;197.23;;;75.63;;
3068;SDS011;1545;51.728;8.796;2023-04-16T02:04:36;177.50;;;72.57;;
3068;SDS011;1545;51.728;8.796;2023-04-16T02:07:03;180.60;;;74.27;;
3068;SDS011;1545;51.728;8.796;2023-04-16T02:09:29;177.57;;;71.10;;
3068;SDS011;1545;51.728;8.796;2023-04-16T02:11:55;175.47;;;75.00;;
3068;SDS011;1545;51.728;8.796;2023-04-16T02:14:21;184.87;;;73.90;;
3068;SDS011;1545;51.728;8.796;2023-04-16T02:16:49;184.93;;;73.90;;
3068;SDS011;1545;51.728;8.796;2023-04-16T02:19:17;176.03;;;73.47;;
3068;SDS011;1545;51.728;8.796;2023-04-16T02:21:43;199.20;;;77.03;;
3068;SDS011;1545;51.728;8.796;2023-04-16T02:24:08;181.53;;;74.87;;
3068;SDS011;1545;51.728;8.796;2023-04-16T02:26:34;193.43;;;76.60;;
3068;SDS011;1545;51.728;8.796;2023-04-16T02:28:59;195.30;;;80.00;;
3068;SDS011;1545;51.728;8.796;2023-04-16T02:31:25;194.93;;;77.70;;
3068;SDS011;1545;51.728;8.796;2023-04-16T02:33:52;186.87;;;79.13;;
3068;SDS011;1545;51.728;8.796;2023-04-16T02:36:18;184.50;;;80.03;;
3068;SDS011;1545;51.728;8.796;2023-04-16T02:38:43;196.80;;;79.60;;
3068;SDS011;1545;51.728;8.796;2023-04-16T02:41:09;195.97;;;80.87;;
3068;SDS011;1545;51.728;8.796;2023-04-16T02:43:35;181.63;;;80.27;;
3068;SDS011;1545;51.728;8.796;2023-04-16T02:46:00;183.63;;;80.17;;
3068;SDS011;1545;51.728;8.796;2023-04-16T02:48:26;188.50;;;81.23;;
3068;SDS011;1545;51.728;8.796;2023-04-16T02:50:51;193.17;;;83.40;;
3068;SDS011;1545;51.728;8.796;2023-04-16T02:53:16;191.07;;;80.33;;
3068;SDS011;1545;51.728;8.796;2023-04-16T02:55:48;195.07;;;82.97;;
3068;SDS011;1545;51.728;8.796;2023-04-16T02:58:17;189.00;;;84.13;;
3068;SDS011;1545;51.728;8.796;2023-04-16T03:00:44;192.90;;;82.13;;
3068;SDS011;1545;51.728;8.796;2023-04-16T03:03:09;195.80;;;83.90;;
3068;SDS011;1545;51.728;8.796;2023-04-16T03:05:35;183.57;;;81.23;;
3068;SDS011;1545;51.728;8.796;2023-04-16T03:08:02;192.77;;;85.17;;
3068;SDS011;1545;51.728;8.796;2023-04-16T03:10:28;184.23;;;82.47;;
3068;SDS011;1545;51.728;8.796;2023-04-16T03:12:53;190.07;;;81.63;;
3068;SDS011;1545;51.728;8.796;2023-04-16T03:15:19;175.20;;;78.47;;
3068;SDS011;1545;51.728;8.796;2023-04-16T03:17:44;196.50;;;83.73;;
3068;SDS011;1545;51.728;8.796;2023-04-16T03:20:10;198.57;;;83.83;;
3068;SDS011;1545;51.728;8.796;2023-04-16T03:22:37;180.43;;;79.30;;
3068;SDS011;1545;51.728;8.796;2023-04-16T03:25:03;179.57;;;78.07;;
3068;SDS011;1545;51.728;8.796;2023-04-16T03:27:29;185.97;;;80.67;;
3068;SDS011;1545;51.728;8.796;2023-04-16T03:29:55;175.30;;;80.03;;
3068;SDS011;1545;51.728;8.796;2023-04-16T03:32:20;174.80;;;77.33;;
3068;SDS011;1545;51.728;8.796;2023-04-16T03:34:46;173.57;;;77.83;;
3068;SDS011;1545;51.728;8.796;2023-04-16T03:37:11;168.07;;;75.13;;
3068;SDS011;1545;51.728;8.796;2023-04-16T03:39:37;168.40;;;76.63;;
3068;SDS011;1545;51.728;8.796;2023-04-16T03:42:02;169.23;;;76.57;;
3068;SDS011;1545;51.728;8.796;2023-04-16T03:44:28;174.00;;;76.90;;
3068;SDS011;1545;51.728;8.796;2023-04-16T03:46:53;164.40;;;73.93;;
3068;SDS011;1545;51.728;8.796;2023-04-16T03:49:19;167.37;;;73.50;;
3068;SDS011;1545;51.728;8.796;2023-04-16T03:51:45;167.83;;;74.63;;
3068;SDS011;1545;51.728;8.796;2023-04-16T03:54:10;174.07;;;74.00;;
3068;SDS011;1545;51.728;8.796;2023-04-16T03:56:36;169.73;;;73.40;;
3068;SDS011;1545;51.728;8.796;2023-04-16T03:59:03;155.20;;;72.07;;
3068;SDS011;1545;51.728;8.796;2023-04-16T04:01:29;163.83;;;70.63;;
3068;SDS011;1545;51.728;8.796;2023-04-16T04:03:54;157.77;;;70.90;;
3068;SDS011;1545;51.728;8.796;2023-04-16T04:06:20;148.47;;;69.63;;
3068;SDS011;1545;51.728;8.796;2023-04-16T04:08:45;154.20;;;70.10;;
3068;SDS011;1545;51.728;8.796;2023-04-16T04:11:11;158.80;;;69.73;;
3068;SDS011;1545;51.728;8.796;2023-04-16T04:13:36;144.77;;;65.63;;
3068;SDS011;1545;51.728;8.796;2023-04-16T04:16:01;133.13;;;63.43;;
3068;SDS011;1545;51.728;8.796;2023-04-16T04:18:27;147.37;;;66.27;;
3068;SDS011;1545;51.728;8.796;2023-04-16T04:20:53;143.93;;;65.03;;
3068;SDS011;1545;51.728;8.796;2023-04-16T04:23:18;143.93;;;66.47;;
3068;SDS011;1545;51.728;8.796;2023-04-16T04:25:44;131.20;;;62.43;;
3068;SDS011;1545;51.728;8.796;2023-04-16T04:28:09;128.10;;;61.77;;
3068;SDS011;1545;51.728;8.796;2023-04-16T04:30:35;136.57;;;62.13;;
3068;SDS011;1545;51.728;8.796;2023-04-16T04:33:00;128.73;;;60.10;;
3068;SDS011;1545;51.728;8.796;2023-04-16T04:35:26;126.67;;;59.10;;
3068;SDS011;1545;51.728;8.796;2023-04-16T04:37:52;122.67;;;58.40;;
3068;SDS011;1545;51.728;8.796;2023-04-16T04:40:17;121.13;;;60.43;;
3068;SDS011;1545;51.728;8.796;2023-04-16T04:42:43;118.10;;;57.80;;
3068;SDS011;1545;51.728;8.796;2023-04-16T04:45:08;125.57;;;58.97;;
3068;SDS011;1545;51.728;8.796;2023-04-16T04:47:34;122.80;;;60.30;;
3068;SDS011;1545;51.728;8.796;2023-04-16T04:50:00;121.47;;;60.23;;
3068;SDS011;1545;51.728;8.796;2023-04-16T04:52:25;119.17;;;57.67;;
3068;SDS011;1545;51.728;8.796;2023-04-16T04:54:51;114.53;;;58.30;;
3068;SDS011;1545;51.728;8.796;2023-04-16T04:57:17;115.77;;;58.27;;
3068;SDS011;1545;51.728;8.796;2023-04-16T04:59:42;115.73;;;58.50;;
3068;SDS011;1545;51.728;8.796;2023-04-16T05:02:07;116.40;;;56.60;;
3068;SDS011;1545;51.728;8.796;2023-04-16T05:04:33;108.17;;;54.00;;
3068;SDS011;1545;51.728;8.796;2023-04-16T05:06:59;106.80;;;52.37;;
3068;SDS011;1545;51.728;8.796;2023-04-16T05:09:25;106.07;;;52.13;;
3068;SDS011;1545;51.728;8.796;2023-04-16T05:11:51;109.87;;;53.00;;
3068;SDS011;1545;51.728;8.796;2023-04-16T05:14:16;101.67;;;53.03;;
3068;SDS011;1545;51.728;8.796;2023-04-16T05:16:42;109.37;;;52.33;;
3068;SDS011;1545;51.728;8.796;2023-04-16T05:19:07;107.40;;;52.30;;
3068;SDS011;1545;51.728;8.796;2023-04-16T05:21:33;105.00;;;52.63;;
3068;SDS011;1545;51.728;8.796;2023-04-16T05:23:58;104.13;;;53.33;;
3068;SDS011;1545;51.728;8.796;2023-04-16T05:26:24;103.80;;;52.97;;
3068;SDS011;1545;51.728;8.796;2023-04-16T05:28:49;108.43;;;52.97;;
3068;SDS011;1545;51.728;8.796;2023-04-16T05:31:15;104.00;;;52.57;;
3068;SDS011;1545;51.728;8.796;2023-04-16T05:33:40;103.03;;;51.50;;
3068;SDS011;1545;51.728;8.796;2023-04-16T05:36:06;106.37;;;51.47;;
3068;SDS011;1545;51.728;8.796;2023-04-16T05:38:31;107.17;;;51.93;;
3068;SDS011;1545;51.728;8.796;2023-04-16T05:40:57;110.23;;;54.90;;
3068;SDS011;1545;51.728;8.796;2023-04-16T05:43:23;114.93;;;54.37;;
3068;SDS011;1545;51.728;8.796;2023-04-16T05:45:48;110.03;;;54.07;;
3068;SDS011;1545;51.728;8.796;2023-04-16T05:48:14;120.83;;;56.03;;
3068;SDS011;1545;51.728;8.796;2023-04-16T05:50:39;115.43;;;55.70;;
3068;SDS011;1545;51.728;8.796;2023-04-16T05:53:06;126.30;;;57.70;;
3068;SDS011;1545;51.728;8.796;2023-04-16T05:55:32;124.10;;;57.27;;
3068;SDS011;1545;51.728;8.796;2023-04-16T05:57:58;119.63;;;57.43;;
3068;SDS011;1545;51.728;8.796;2023-04-16T06:00:23;124.00;;;59.00;;
3068;SDS011;1545;51.728;8.796;2023-04-16T06:02:49;116.37;;;58.27;;
3068;SDS011;1545;51.728;8.796;2023-04-16T06:05:15;123.43;;;57.53;;
3068;SDS011;1545;51.728;8.796;2023-04-16T06:07:40;118.33;;;57.50;;
3068;SDS011;1545;51.728;8.796;2023-04-16T06:10:06;122.43;;;58.30;;
3068;SDS011;1545;51.728;8.796;2023-04-16T06:12:32;127.87;;;58.93;;
3068;SDS011;1545;51.728;8.796;2023-04-16T06:14:57;122.03;;;57.17;;
3068;SDS011;1545;51.728;8.796;2023-04-16T06:17:23;135.60;;;61.47;;
3068;SDS011;1545;51.728;8.796;2023-04-16T06:19:49;123.67;;;58.07;;
3068;SDS011;1545;51.728;8.796;2023-04-16T06:22:14;119.37;;;58.97;;
3068;SDS011;1545;51.728;8.796;2023-04-16T06:24:40;120.30;;;59.93;;
3068;SDS011;1545;51.728;8.796;2023-04-16T06:27:05;117.30;;;58.27;;
3068;SDS011;1545;51.728;8.796;2023-04-16T06:29:31;113.40;;;55.37;;
3068;SDS011;1545;51.728;8.796;2023-04-16T06:31:56;109.13;;;54.43;;
3068;SDS011;1545;51.728;8.796;2023-04-16T06:34:22;111.27;;;52.97;;
3068;SDS011;1545;51.728;8.796;2023-04-16T06:36:47;113.30;;;53.53;;
3068;SDS011;1545;51.728;8.796;2023-04-16T06:39:13;104.43;;;51.27;;
3068;SDS011;1545;51.728;8.796;2023-04-16T06:41:38;112.07;;;52.37;;
3068;SDS011;1545;51.728;8.796;2023-04-16T06:44:04;99.97;;;49.93;;
3068;SDS011;1545;51.728;8.796;2023-04-16T06:46:30;101.70;;;50.73;;
3068;SDS011;1545;51.728;8.796;2023-04-16T06:48:55;110.13;;;53.60;;
3068;SDS011;1545;51.728;8.796;2023-04-16T06:51:21;113.67;;;52.83;;
3068;SDS011;1545;51.728;8.796;2023-04-16T06:53:47;108.20;;;54.07;;
3068;SDS011;1545;51.728;8.796;2023-04-16T06:56:13;115.10;;;54.00;;
3068;SDS011;1545;51.728;8.796;2023-04-16T06:58:38;108.30;;;52.37;;
3068;SDS011;1545;51.728;8.796;2023-04-16T07:01:03;116.23;;;53.60;;
3068;SDS011;1545;51.728;8.796;2023-04-16T07:03:29;108.33;;;53.03;;
3068;SDS011;1545;51.728;8.796;2023-04-16T07:05:55;114.17;;;53.20;;
3068;SDS011;1545;51.728;8.796;2023-04-16T07:08:20;120.33;;;53.77;;
3068;SDS011;1545;51.728;8.796;2023-04-16T07:10:46;110.57;;;53.57;;
3068;SDS011;1545;51.728;8.796;2023-04-16T07:13:12;110.70;;;52.57;;
3068;SDS011;1545;51.728;8.796;2023-04-16T07:15:37;112.20;;;52.77;;
3068;SDS011;1545;51.728;8.796;2023-04-16T07:18:03;111.47;;;54.33;;
3068;SDS011;1545;51.728;8.796;2023-04-16T07:20:28;114.73;;;53.93;;
3068;SDS011;1545;51.728;8.796;2023-04-16T07:22:54;107.50;;;52.97;;
3068;SDS011;1545;51.728;8.796;2023-04-16T07:25:20;117.00;;;50.43;;
3068;SDS011;1545;51.728;8.796;2023-04-16T07:27:45;107.87;;;51.23;;
3068;SDS011;1545;51.728;8.796;2023-04-16T07:30:11;120.33;;;53.50;;
3068;SDS011;1545;51.728;8.796;2023-04-16T07:32:36;108.33;;;52.70;;
3068;SDS011;1545;51.728;8.796;2023-04-16T07:35:02;110.87;;;51.80;;
3068;SDS011;1545;51.728;8.796;2023-04-16T07:37:27;110.20;;;51.03;;
3068;SDS011;1545;51.728;8.796;2023-04-16T07:39:53;103.90;;;48.00;;
3068;SDS011;1545;51.728;8.796;2023-04-16T07:42:21;108.70;;;46.97;;
3068;SDS011;1545;51.728;8.796;2023-04-16T07:44:46;83.53;;;44.87;;
3068;SDS011;1545;51.728;8.796;2023-04-16T07:47:12;82.87;;;42.83;;
3068;SDS011;1545;51.728;8.796;2023-04-16T07:49:37;75.73;;;40.70;;
3068;SDS011;1545;51.728;8.796;2023-04-16T07:52:03;84.60;;;42.53;;
3068;SDS011;1545;51.728;8.796;2023-04-16T07:54:29;83.33;;;43.67;;
3068;SDS011;1545;51.728;8.796;2023-04-16T07:56:55;83.53;;;41.93;;
3068;SDS011;1545;51.728;8.796;2023-04-16T07:59:20;73.10;;;39.97;;
3068;SDS011;1545;51.728;8.796;2023-04-16T08:01:46;73.17;;;39.03;;
3068;SDS011;1545;51.728;8.796;2023-04-16T08:04:11;74.07;;;40.27;;
3068;SDS011;1545;51.728;8.796;2023-04-16T08:06:38;72.70;;;38.13;;
3068;SDS011;1545;51.728;8.796;2023-04-16T08:09:03;67.10;;;36.60;;
3068;SDS011;1545;51.728;8.796;2023-04-16T08:11:29;72.23;;;37.47;;
3068;SDS011;1545;51.728;8.796;2023-04-16T08:13:54;72.10;;;36.13;;
3068;SDS011;1545;51.728;8.796;2023-04-16T08:16:20;64.07;;;35.83;;
3068;SDS011;1545;51.728;8.796;2023-04-16T08:18:45;57.03;;;33.20;;
3068;SDS011;1545;51.728;8.796;2023-04-16T08:21:11;62.30;;;33.50;;
3068;SDS011;1545;51.728;8.796;2023-04-16T08:23:36;61.07;;;34.10;;
3068;SDS011;1545;51.728;8.796;2023-04-16T08:26:02;59.13;;;33.77;;
3068;SDS011;1545;51.728;8.796;2023-04-16T08:28:27;63.17;;;31.43;;
3068;SDS011;1545;51.728;8.796;2023-04-16T08:30:53;58.93;;;32.40;;
3068;SDS011;1545;51.728;8.796;2023-04-16T08:33:18;59.17;;;32.70;;
3068;SDS011;1545;51.728;8.796;2023-04-16T08:35:45;53.60;;;32.47;;
3068;SDS011;1545;51.728;8.796;2023-04-16T08:38:10;59.40;;;32.50;;
3068;SDS011;1545;51.728;8.796;2023-04-16T08:40:36;56.50;;;33.10;;
3068;SDS011;1545;51.728;8.796;2023-04-16T08:43:04;67.67;;;35.40;;
3068;SDS011;1545;51.728;8.796;2023-04-16T08:45:35;58.83;;;32.87;;
3068;SDS011;1545;51.728;8.796;2023-04-16T08:48:02;59.73;;;32.83;;
3068;SDS011;1545;51.728;8.796;2023-04-16T08:50:29;56.10;;;32.10;;
3068;SDS011;1545;51.728;8.796;2023-04-16T08:53:04;59.07;;;32.13;;
3068;SDS011;1545;51.728;8.796;2023-04-16T08:55:45;55.80;;;31.07;;
3068;SDS011;1545;51.728;8.796;2023-04-16T08:58:13;55.33;;;32.07;;
3068;SDS011;1545;51.728;8.796;2023-04-16T09:00:39;59.47;;;30.67;;
3068;SDS011;1545;51.728;8.796;2023-04-16T09:03:05;56.27;;;30.53;;
3068;SDS011;1545;51.728;8.796;2023-04-16T09:05:32;48.70;;;29.20;;
3068;SDS011;1545;51.728;8.796;2023-04-16T09:07:58;46.20;;;28.57;;
3068;SDS011;1545;51.728;8.796;2023-04-16T09:10:25;49.00;;;28.20;;
3068;SDS011;1545;51.728;8.796;2023-04-16T09:12:51;51.30;;;29.53;;
3068;SDS011;1545;51.728;8.796;2023-04-16T09:15:19;50.47;;;29.03;;
3068;SDS011;1545;51.728;8.796;2023-04-16T09:17:45;54.60;;;30.40;;
3068;SDS011;1545;51.728;8.796;2023-04-16T09:20:11;49.93;;;29.83;;
3068;SDS011;1545;51.728;8.796;2023-04-16T09:22:37;49.67;;;29.87;;
3068;SDS011;1545;51.728;8.796;2023-04-16T09:25:04;49.87;;;30.47;;
3068;SDS011;1545;51.728;8.796;2023-04-16T09:27:30;52.87;;;30.77;;
3068;SDS011;1545;51.728;8.796;2023-04-16T09:29:56;52.40;;;31.30;;
3068;SDS011;1545;51.728;8.796;2023-04-16T09:32:25;49.17;;;30.20;;
3068;SDS011;1545;51.728;8.796;2023-04-16T09:34:58;50.60;;;30.00;;
3068;SDS011;1545;51.728;8.796;2023-04-16T09:37:26;49.30;;;29.37;;
3068;SDS011;1545;51.728;8.796;2023-04-16T09:40:01;55.83;;;29.60;;
3068;SDS011;1545;51.728;8.796;2023-04-16T09:42:29;58.30;;;30.13;;
3068;SDS011;1545;51.728;8.796;2023-04-16T09:44:59;54.47;;;30.27;;
3068;SDS011;1545;51.728;8.796;2023-04-16T09:47:25;47.50;;;28.90;;
3068;SDS011;1545;51.728;8.796;2023-04-16T09:50:02;68.70;;;28.77;;
3068;SDS011;1545;51.728;8.796;2023-04-16T09:52:28;56.43;;;31.17;;
3068;SDS011;1545;51.728;8.796;2023-04-16T09:54:54;54.97;;;31.77;;
3068;SDS011;1545;51.728;8.796;2023-04-16T09:57:20;57.37;;;33.17;;
3068;SDS011;1545;51.728;8.796;2023-04-16T09:59:48;54.60;;;32.00;;
3068;SDS011;1545;51.728;8.796;2023-04-16T10:02:17;58.40;;;32.57;;
3068;SDS011;1545;51.728;8.796;2023-04-16T10:04:44;54.63;;;32.63;;
3068;SDS011;1545;51.728;8.796;2023-04-16T10:07:14;59.00;;;34.10;;
3068;SDS011;1545;51.728;8.796;2023-04-16T10:09:40;62.23;;;34.67;;
3068;SDS011;1545;51.728;8.796;2023-04-16T10:12:06;59.30;;;33.77;;
3068;SDS011;1545;51.728;8.796;2023-04-16T10:14:32;57.30;;;32.47;;
3068;SDS011;1545;51.728;8.796;2023-04-16T10:16:58;58.03;;;33.23;;
3068;SDS011;1545;51.728;8.796;2023-04-16T10:19:24;55.20;;;32.77;;
3068;SDS011;1545;51.728;8.796;2023-04-16T10:21:51;53.03;;;32.63;;
3068;SDS011;1545;51.728;8.796;2023-04-16T10:24:17;54.37;;;33.03;;
3068;SDS011;1545;51.728;8.796;2023-04-16T10:26:43;57.60;;;33.10;;
3068;SDS011;1545;51.728;8.796;2023-04-16T10:29:10;60.23;;;33.73;;
3068;SDS011;1545;51.728;8.796;2023-04-16T10:31:36;59.40;;;34.13;;
3068;SDS011;1545;51.728;8.796;2023-04-16T10:34:03;55.90;;;33.37;;
3068;SDS011;1545;51.728;8.796;2023-04-16T10:36:33;56.33;;;33.53;;
3068;SDS011;1545;51.728;8.796;2023-04-16T10:39:00;57.17;;;33.80;;
3068;SDS011;1545;51.728;8.796;2023-04-16T10:41:26;55.17;;;32.97;;
3068;SDS011;1545;51.728;8.796;2023-04-16T10:43:52;52.40;;;32.90;;
3068;SDS011;1545;51.728;8.796;2023-04-16T10:46:40;57.07;;;34.27;;
3068;SDS011;1545;51.728;8.796;2023-04-16T10:49:17;68.13;;;35.50;;
3068;SDS011;1545;51.728;8.796;2023-04-16T10:51:58;67.60;;;36.20;;
3068;SDS011;1545;51.728;8.796;2023-04-16T10:54:27;62.23;;;36.43;;
3068;SDS011;1545;51.728;8.796;2023-04-16T10:56:53;64.37;;;35.53;;
3068;SDS011;1545;51.728;8.796;2023-04-16T10:59:21;63.83;;;34.50;;
3068;SDS011;1545;51.728;8.796;2023-04-16T11:01:54;59.37;;;32.90;;
3068;SDS011;1545;51.728;8.796;2023-04-16T11:07:04;63.90;;;31.97;;
3068;SDS011;1545;51.728;8.796;2023-04-16T11:12:11;52.50;;;28.67;;
3068;SDS011;1545;51.728;8.796;2023-04-16T11:14:43;49.50;;;27.97;;
3068;SDS011;1545;51.728;8.796;2023-04-16T11:17:15;46.27;;;28.27;;
3068;SDS011;1545;51.728;8.796;2023-04-16T11:19:41;51.43;;;30.87;;
3068;SDS011;1545;51.728;8.796;2023-04-16T11:22:07;51.03;;;30.23;;
3068;SDS011;1545;51.728;8.796;2023-04-16T11:24:35;55.90;;;30.70;;
3068;SDS011;1545;51.728;8.796;2023-04-16T11:27:03;48.00;;;28.33;;
3068;SDS011;1545;51.728;8.796;2023-04-16T11:29:29;51.83;;;30.90;;
3068;SDS011;1545;51.728;8.796;2023-04-16T11:31:54;49.80;;;30.37;;
3068;SDS011;1545;51.728;8.796;2023-04-16T11:34:20;47.07;;;29.47;;
3068;SDS011;1545;51.728;8.796;2023-04-16T11:36:46;51.73;;;29.50;;
3068;SDS011;1545;51.728;8.796;2023-04-16T11:39:13;48.60;;;27.67;;
3068;SDS011;1545;51.728;8.796;2023-04-16T11:41:47;46.40;;;28.30;;
3068;SDS011;1545;51.728;8.796;2023-04-16T11:46:42;44.13;;;28.60;;
3068;SDS011;1545;51.728;8.796;2023-04-16T11:49:08;49.83;;;29.83;;
3068;SDS011;1545;51.728;8.796;2023-04-16T11:51:43;51.63;;;31.23;;
3068;SDS011;1545;51.728;8.796;2023-04-16T11:54:18;52.27;;;31.67;;
3068;SDS011;1545;51.728;8.796;2023-04-16T11:56:45;56.57;;;33.63;;
3068;SDS011;1545;51.728;8.796;2023-04-16T12:01:39;58.30;;;33.33;;
3068;SDS011;1545;51.728;8.796;2023-04-16T12:04:05;67.27;;;32.73;;
3068;SDS011;1545;51.728;8.796;2023-04-16T12:06:31;59.43;;;32.50;;
3068;SDS011;1545;51.728;8.796;2023-04-16T12:08:57;61.90;;;33.53;;
3068;SDS011;1545;51.728;8.796;2023-04-16T12:11:36;55.33;;;32.50;;
3068;SDS011;1545;51.728;8.796;2023-04-16T12:14:09;63.53;;;34.50;;
3068;SDS011;1545;51.728;8.796;2023-04-16T12:16:36;68.57;;;32.80;;
3068;SDS011;1545;51.728;8.796;2023-04-16T12:19:02;68.43;;;33.37;;
3068;SDS011;1545;51.728;8.796;2023-04-16T12:24:08;63.07;;;32.70;;
3068;SDS011;1545;51.728;8.796;2023-04-16T12:26:41;58.17;;;33.10;;
3068;SDS011;1545;51.728;8.796;2023-04-16T12:31:43;60.80;;;33.20;;
3068;SDS011;1545;51.728;8.796;2023-04-16T12:34:10;59.33;;;31.53;;
3068;SDS011;1545;51.728;8.796;2023-04-16T12:36:36;63.20;;;31.53;;
3068;SDS011;1545;51.728;8.796;2023-04-16T12:39:02;56.60;;;32.17;;
3068;SDS011;1545;51.728;8.796;2023-04-16T12:41:27;60.13;;;31.23;;
3068;SDS011;1545;51.728;8.796;2023-04-16T12:44:03;54.43;;;29.87;;
3068;SDS011;1545;51.728;8.796;2023-04-16T12:46:28;62.23;;;30.80;;
3068;SDS011;1545;51.728;8.796;2023-04-16T12:48:54;57.40;;;31.20;;
3068;SDS011;1545;51.728;8.796;2023-04-16T12:51:21;57.77;;;31.23;;
3068;SDS011;1545;51.728;8.796;2023-04-16T12:53:47;64.70;;;31.97;;
3068;SDS011;1545;51.728;8.796;2023-04-16T12:56:13;56.27;;;29.97;;
3068;SDS011;1545;51.728;8.796;2023-04-16T12:58:39;64.80;;;31.10;;
3068;SDS011;1545;51.728;8.796;2023-04-16T13:01:04;57.73;;;31.73;;
3068;SDS011;1545;51.728;8.796;2023-04-16T13:03:30;61.17;;;32.10;;
3068;SDS011;1545;51.728;8.796;2023-04-16T13:05:56;62.40;;;32.40;;
3068;SDS011;1545;51.728;8.796;2023-04-16T13:08:21;60.07;;;32.80;;
3068;SDS011;1545;51.728;8.796;2023-04-16T13:10:47;61.33;;;31.60;;
3068;SDS011;1545;51.728;8.796;2023-04-16T13:13:12;59.00;;;32.27;;
3068;SDS011;1545;51.728;8.796;2023-04-16T13:15:38;59.20;;;32.93;;
3068;SDS011;1545;51.728;8.796;2023-04-16T13:18:03;68.97;;;32.57;;
3068;SDS011;1545;51.728;8.796;2023-04-16T13:20:29;55.00;;;30.97;;
3068;SDS011;1545;51.728;8.796;2023-04-16T13:22:54;52.23;;;30.33;;
3068;SDS011;1545;51.728;8.796;2023-04-16T13:25:20;60.73;;;30.73;;
3068;SDS011;1545;51.728;8.796;2023-04-16T13:27:45;55.77;;;29.67;;
3068;SDS011;1545;51.728;8.796;2023-04-16T13:30:11;54.73;;;30.57;;
3068;SDS011;1545;51.728;8.796;2023-04-16T13:32:36;56.03;;;31.43;;
3068;SDS011;1545;51.728;8.796;2023-04-16T13:35:02;56.87;;;30.67;;
3068;SDS011;1545;51.728;8.796;2023-04-16T13:37:28;59.13;;;31.37;;
3068;SDS011;1545;51.728;8.796;2023-04-16T13:39:53;57.00;;;30.33;;
3068;SDS011;1545;51.728;8.796;2023-04-16T13:42:20;57.23;;;30.27;;
3068;SDS011;1545;51.728;8.796;2023-04-16T13:44:46;57.37;;;30.30;;
3068;SDS011;1545;51.728;8.796;2023-04-16T13:47:13;59.03;;;31.03;;
3068;SDS011;1545;51.728;8.796;2023-04-16T13:49:38;54.77;;;30.00;;
3068;SDS011;1545;51.728;8.796;2023-04-16T13:52:04;52.97;;;29.43;;
3068;SDS011;1545;51.728;8.796;2023-04-16T13:54:29;50.83;;;30.13;;
3068;SDS011;1545;51.728;8.796;2023-04-16T13:56:55;59.33;;;30.53;;
3068;SDS011;1545;51.728;8.796;2023-04-16T13:59:21;50.13;;;29.80;;
3068;SDS011;1545;51.728;8.796;2023-04-16T14:01:46;54.60;;;30.60;;
3068;SDS011;1545;51.728;8.796;2023-04-16T14:04:12;56.13;;;31.33;;
3068;SDS011;1545;51.728;8.796;2023-04-16T14:06:37;52.60;;;29.87;;
3068;SDS011;1545;51.728;8.796;2023-04-16T14:09:03;60.43;;;30.60;;
3068;SDS011;1545;51.728;8.796;2023-04-16T14:11:28;56.47;;;30.20;;
3068;SDS011;1545;51.728;8.796;2023-04-16T14:13:54;58.20;;;29.53;;
3068;SDS011;1545;51.728;8.796;2023-04-16T14:16:19;55.47;;;30.17;;
3068;SDS011;1545;51.728;8.796;2023-04-16T14:18:45;60.90;;;29.03;;
3068;SDS011;1545;51.728;8.796;2023-04-16T14:21:11;61.17;;;29.27;;
3068;SDS011;1545;51.728;8.796;2023-04-16T14:23:37;52.37;;;29.40;;
3068;SDS011;1545;51.728;8.796;2023-04-16T14:26:02;60.87;;;31.03;;
3068;SDS011;1545;51.728;8.796;2023-04-16T14:28:28;56.60;;;31.10;;
3068;SDS011;1545;51.728;8.796;2023-04-16T14:30:53;55.23;;;29.17;;
3068;SDS011;1545;51.728;8.796;2023-04-16T14:33:19;52.00;;;29.33;;
3068;SDS011;1545;51.728;8.796;2023-04-16T14:35:44;53.17;;;29.53;;
3068;SDS011;1545;51.728;8.796;2023-04-16T14:38:10;57.03;;;29.70;;
3068;SDS011;1545;51.728;8.796;2023-04-16T14:40:36;55.70;;;30.17;;
3068;SDS011;1545;51.728;8.796;2023-04-16T14:43:01;63.23;;;32.70;;
3068;SDS011;1545;51.728;8.796;2023-04-16T14:45:27;55.70;;;30.20;;
3068;SDS011;1545;51.728;8.796;2023-04-16T14:47:53;59.97;;;31.63;;
3068;SDS011;1545;51.728;8.796;2023-04-16T14:50:19;51.23;;;30.03;;